Time;durP1;ratioP1;P1;durP2;ratioP2;P2;SDS_P1;SDS_P2;PMS_P1;PMS_P2;Temp;Humidity;BMP_temperature;BMP_pressure;BME280_temperature;BME280_humidity;BME280_pressure;Samples;Min_cycle;Max_cycle;Signal;HPM_P1;HPM_P2
2022/08/06 00:02:35;;;;;;;0.03;0.03;;;;;;;-145.16;100.00;78872.23;645042;216;32366;-72
2022/08/06 00:08:34;;;;;;;0.10;0.10;;;;;;;-145.16;100.00;78867.19;645182;217;33359;-72
2022/08/06 00:14:35;;;;;;;0.10;0.10;;;;;;;-145.16;100.00;78881.29;645085;218;34333;-72
2022/08/06 00:20:35;;;;;;;0.10;0.10;;;;;;;-145.16;100.00;78886.33;645172;218;32405;-72
2022/08/06 00:26:34;;;;;;;0.00;0.00;;;;;;;-145.16;100.00;78892.37;645176;218;33337;-72
2022/08/06 00:32:33;;;;;;;0.10;0.10;;;;;;;-145.16;100.00;78915.53;645168;217;32666;-71
2022/08/06 00:38:35;;;;;;;0.00;0.00;;;;;;;-145.16;100.00;78995.10;645035;218;33347;-72
2022/08/06 00:44:34;;;;;;;0.10;0.10;;;;;;;-145.16;100.00;78978.98;645182;217;43158;-72
2022/08/06 00:50:33;;;;;;;0.10;0.10;;;;;;;-145.16;100.00;78967.91;645180;218;32422;-72
2022/08/06 00:56:35;;;;;;;0.10;0.10;;;;;;;-145.16;100.00;78953.81;645016;217;32701;-71
2022/08/06 01:02:34;;;;;;;0.00;0.00;;;;;;;-145.16;100.00;78950.78;653699;217;32414;-72
2022/08/06 01:08:33;;;;;;;0.10;0.10;;;;;;;-145.16;100.00;78972.94;653672;217;33355;-72
2022/08/06 01:14:33;;;;;;;0.10;0.10;;;;;;;-145.16;100.00;79007.19;645194;218;33304;-72
2022/08/06 01:20:32;;;;;;;0.00;0.00;;;;;;;-145.16;100.00;78993.09;653679;217;32362;-72
2022/08/06 01:26:35;;;;;;;0.10;0.10;;;;;;;-145.16;100.00;78996.11;653730;217;33296;-72
2022/08/06 01:32:34;;;;;;;0.00;0.00;;;;;;;-145.16;100.00;78999.13;645176;216;34324;-72
2022/08/06 01:38:36;;;;;;;0.10;0.10;;;;;;;-145.16;100.00;78995.10;645087;217;33381;-72
2022/08/06 01:44:37;;;;;;;0.10;0.10;;;;;;;-145.16;100.00;79006.18;645073;217;32364;-72
2022/08/06 01:50:38;;;;;;;0.00;0.00;;;;;;;-145.16;100.00;79004.17;645030;218;32375;-72
2022/08/06 01:56:38;;;;;;;0.00;0.00;;;;;;;-145.16;100.00;79013.23;645185;217;34329;-71
2022/08/06 02:02:37;;;;;;;0.10;0.10;;;;;;;-145.16;100.00;79018.27;653682;217;32368;-72
2022/08/06 02:08:37;;;;;;;0.10;0.10;;;;;;;-145.16;100.00;79024.31;653684;217;32363;-72
2022/08/06 02:14:36;;;;;;;0.00;0.00;;;;;;;-145.16;100.00;79034.38;653699;217;32368;-72
2022/08/06 02:20:35;;;;;;;0.00;0.00;;;;;;;-145.16;100.00;79044.45;645173;218;33373;-72
2022/08/06 02:26:34;;;;;;;0.00;0.00;;;;;;;-145.16;100.00;79045.46;653691;218;32669;-72
2022/08/06 02:32:34;;;;;;;0.00;0.00;;;;;;;-145.16;100.00;79042.44;645176;217;32378;-72
2022/08/06 02:38:33;;;;;;;0.03;0.03;;;;;;;-145.16;100.00;79045.46;653681;217;32353;-72
2022/08/06 02:44:34;;;;;;;0.00;0.00;;;;;;;-145.16;100.00;79049.48;645039;217;32602;-72
2022/08/06 02:50:34;;;;;;;0.00;0.00;;;;;;;-145.16;100.00;79039.42;645184;218;34294;-72
2022/08/06 02:56:35;;;;;;;0.00;0.00;;;;;;;-145.16;100.00;79047.48;645040;218;34360;-72
2022/08/06 03:02:35;;;;;;;0.10;0.10;;;;;;;-145.16;100.00;79062.58;645186;217;32382;-72
2022/08/06 03:08:34;;;;;;;0.10;0.10;;;;;;;-145.16;100.00;79063.59;653696;217;32364;-72
2022/08/06 03:14:34;;;;;;;0.07;0.07;;;;;;;-145.16;100.00;79069.63;645194;217;32412;-72
2022/08/06 03:20:33;;;;;;;0.00;0.00;;;;;;;-145.16;100.00;79085.75;645182;217;32419;-72
2022/08/06 03:26:32;;;;;;;0.00;0.00;;;;;;;-145.16;100.00;79080.72;645191;217;32396;-72
2022/08/06 03:32:32;;;;;;;0.10;0.10;;;;;;;-145.16;100.00;79080.72;645191;218;32371;-71
2022/08/06 03:38:31;;;;;;;0.00;0.00;;;;;;;-145.16;100.00;79101.86;645192;217;34337;-72
2022/08/06 03:44:30;;;;;;;0.00;0.00;;;;;;;-145.16;100.00;79144.17;645191;217;32372;-72
2022/08/06 03:50:31;;;;;;;0.00;0.00;;;;;;;-145.16;100.00;79175.39;645183;218;32363;-72
2022/08/06 03:56:31;;;;;;;0.00;0.00;;;;;;;-145.16;100.00;79171.36;653688;217;32373;-71
2022/08/06 04:02:30;;;;;;;0.00;0.00;;;;;;;-145.16;100.00;79156.25;653691;217;43329;-72
2022/08/06 04:08:30;;;;;;;0.00;0.00;;;;;;;-145.16;100.00;79140.14;645187;218;32371;-72
2022/08/06 04:14:29;;;;;;;0.10;0.10;;;;;;;-145.16;100.00;79182.45;645195;217;32411;-72
2022/08/06 04:20:28;;;;;;;0.10;0.10;;;;;;;-145.16;100.00;79153.23;645175;217;33355;-72
2022/08/06 04:26:28;;;;;;;0.00;0.00;;;;;;;-145.16;100.00;79033.38;645179;217;33360;-72
2022/08/06 04:32:27;;;;;;;0.10;0.10;;;;;;;-145.16;100.00;78831.94;645182;217;32372;-72
2022/08/06 04:38:26;;;;;;;0.10;0.10;;;;;;;-145.16;100.00;78537.86;645194;217;34328;-72
2022/08/06 04:44:27;;;;;;;0.10;0.10;;;;;;;-145.16;100.00;78320.34;645189;218;33346;-73
2022/08/06 04:50:25;;;;;;;0.10;0.10;;;;;;;-145.16;100.00;78184.41;645270;217;34575;-72
2022/08/06 04:56:25;;;;;;;0.10;0.10;;;;;;;-145.16;100.00;78101.84;645186;217;32367;-72
2022/08/06 05:02:24;;;;;;;0.10;0.10;;;;;;;-145.16;100.00;77867.23;645199;216;43101;-73
2022/08/06 05:08:25;;;;;;;0.15;0.15;;;;;;;-145.16;100.00;77682.98;653685;217;32656;-73
2022/08/06 05:14:26;;;;;;;0.30;0.30;;;;;;;-145.16;100.00;77692.04;645031;217;32320;-71
2022/08/06 05:20:25;;;;;;;0.30;0.30;;;;;;;-145.16;93.81;77391.02;653693;217;32382;-71
2022/08/06 05:26:25;;;;;;;0.30;0.30;;;;;;;-145.16;85.04;77333.63;645150;217;32376;-73
2022/08/06 05:32:25;;;;;;;0.20;0.20;;;;;;;-145.16;83.22;77230.95;653682;218;32360;-71
2022/08/06 05:38:25;;;;;;;0.30;0.30;;;;;;;-145.16;77.32;77047.73;653668;217;32361;-71
2022/08/06 05:44:24;;;;;;;0.40;0.40;;;;;;;-145.16;72.47;76960.16;645159;218;32363;-71
2022/08/06 05:50:23;;;;;;;0.50;0.50;;;;;;;-145.16;68.02;76870.58;645190;217;32294;-71
2022/08/06 05:56:23;;;;;;;0.40;0.40;;;;;;;-145.16;63.42;76722.62;645191;217;32381;-71
2022/08/06 06:02:21;;;;;;;0.30;0.30;;;;;;;-145.16;60.35;76650.14;645179;217;32363;-71
2022/08/06 06:08:21;;;;;;;1.60;1.40;;;;;;;-145.16;57.68;76561.58;645169;218;32305;-72
2022/08/06 06:14:20;;;;;;;0.43;0.43;;;;;;;-145.16;61.58;76992.38;653680;217;32370;-72
2022/08/06 06:20:39;;;;;;;0.43;0.43;;;;;;;-145.16;65.77;77125.25;643251;217;32419;-72
2022/08/06 06:26:38;;;;;;;0.40;0.40;;;;;;;-145.16;59.13;76780.99;653697;217;43045;-71
2022/08/06 06:32:42;;;;;;;0.50;0.50;;;;;;;-145.16;56.40;76662.22;645179;218;43014;-72
2022/08/06 06:38:45;;;;;;;0.43;0.43;;;;;;;-145.16;52.57;76635.05;653638;217;32396;-72
2022/08/06 06:44:44;;;;;;;0.50;0.50;;;;;;;-145.16;54.14;76817.23;641960;217;32574;-71
2022/08/06 06:50:45;;;;;;;0.65;0.65;;;;;;;-145.16;55.75;77239.00;644848;218;32368;-72
2022/08/06 06:56:44;;;;;;;0.43;0.43;;;;;;;-145.16;53.69;76985.33;641556;217;43209;-72
2022/08/06 07:02:44;;;;;;;0.47;0.47;;;;;;;-145.16;55.57;77083.98;645172;218;32309;-74
2022/08/06 07:08:44;;;;;;;0.40;0.40;;;;;;;-145.16;59.19;77185.65;645172;218;32371;-72
2022/08/06 07:14:43;;;;;;;1.90;0.90;;;;;;;-145.16;55.39;77230.95;645176;216;43057;-72
2022/08/06 07:20:43;;;;;;;0.50;0.50;;;;;;;-145.16;58.02;77224.91;653689;217;43105;-72
2022/08/06 07:26:43;;;;;;;1.00;1.00;;;;;;;-145.16;58.92;77417.19;644991;217;32373;-71
2022/08/06 07:32:42;;;;;;;0.40;0.40;;;;;;;-145.16;59.12;77596.39;645192;218;32412;-71
2022/08/06 07:38:41;;;;;;;0.55;0.55;;;;;;;-145.16;63.87;77526.92;645182;217;32367;-71
2022/08/06 07:44:41;;;;;;;0.40;0.40;;;;;;;-145.16;60.97;77260.14;645196;216;32382;-71
2022/08/06 07:50:40;;;;;;;0.32;0.32;;;;;;;-145.16;54.61;77124.24;653680;217;32315;-72
2022/08/06 07:56:39;;;;;;;0.50;0.50;;;;;;;-145.16;52.43;77331.62;645178;217;32356;-71
2022/08/06 08:02:38;;;;;;;0.50;0.50;;;;;;;-145.16;54.77;77401.08;644012;217;32329;-71
2022/08/06 08:08:38;;;;;;;0.75;0.75;;;;;;;-145.16;53.05;77304.44;645178;217;32354;-71
2022/08/06 08:14:37;;;;;;;0.50;0.50;;;;;;;-145.16;51.97;77326.59;645164;217;32297;-71
2022/08/06 08:20:37;;;;;;;0.43;0.43;;;;;;;-145.16;53.15;77276.25;645157;217;43066;-71
2022/08/06 08:26:36;;;;;;;0.55;0.55;;;;;;;-145.16;49.68;77143.37;645168;218;32371;-71
2022/08/06 08:32:35;;;;;;;0.45;0.45;;;;;;;-145.16;48.59;77063.84;645181;217;43065;-72
2022/08/06 08:38:35;;;;;;;0.50;0.50;;;;;;;-145.16;44.08;76832.33;645186;217;32314;-73
2022/08/06 08:44:34;;;;;;;0.60;0.60;;;;;;;-145.16;46.11;76908.83;643325;217;32603;-71
2022/08/06 08:50:33;;;;;;;0.60;0.60;;;;;;;-145.16;44.14;76677.32;645167;217;32382;-72
2022/08/06 08:56:35;;;;;;;0.60;0.60;;;;;;;-145.16;48.30;77369.88;641302;217;32495;-72
2022/08/06 09:02:33;;;;;;;0.50;0.50;;;;;;;-145.16;51.22;77276.25;645162;217;32359;-71
2022/08/06 09:08:33;;;;;;;0.40;0.40;;;;;;;-145.16;47.84;77181.63;645166;217;32439;-71
2022/08/06 09:14:32;;;;;;;0.40;0.40;;;;;;;-145.16;51.70;77404.10;653657;218;32409;-71
2022/08/06 09:20:32;;;;;;;0.50;0.50;;;;;;;-145.16;48.59;77262.16;653649;218;32357;-72
2022/08/06 09:26:33;;;;;;;0.50;0.50;;;;;;;-145.16;49.29;77391.02;649226;217;32358;-71
2022/08/06 09:32:33;;;;;;;0.60;0.60;;;;;;;-145.16;45.31;77331.62;643823;217;32328;-71
2022/08/06 09:38:33;;;;;;;0.80;0.80;;;;;;;-145.16;48.70;77424.23;645161;217;32338;-71
2022/08/06 09:44:32;;;;;;;0.55;0.55;;;;;;;-145.16;46.65;77298.40;644823;218;32396;-71
2022/08/06 09:50:35;;;;;;;0.50;0.50;;;;;;;-145.16;45.69;76979.29;645134;217;32387;-71
2022/08/06 09:56:34;;;;;;;0.45;0.45;;;;;;;-145.16;42.91;77000.42;637063;217;32790;-72
2022/08/06 10:02:33;;;;;;;1.20;1.20;;;;;;;-145.16;43.86;77177.59;645182;217;32378;-71
2022/08/06 10:08:33;;;;;;;0.40;0.40;;;;;;;-145.16;45.10;77309.47;644355;217;32340;-70
2022/08/06 10:14:37;;;;;;;0.40;0.40;;;;;;;-145.16;43.10;77333.63;645647;217;43095;-71
2022/08/06 10:20:36;;;;;;;0.68;0.68;;;;;;;-145.16;40.99;77134.31;644264;217;32518;-71
2022/08/06 10:26:36;;;;;;;0.60;0.60;;;;;;;-145.16;40.08;76814.21;645188;217;43055;-71
2022/08/06 10:32:35;;;;;;;0.70;0.70;;;;;;;-145.16;39.41;76990.36;639144;216;32526;-71
2022/08/06 10:38:36;;;;;;;0.40;0.40;;;;;;;-145.16;47.37;77459.47;653693;217;42714;-71
2022/08/06 10:44:35;;;;;;;0.40;0.40;;;;;;;-145.16;48.24;77599.41;645177;218;43162;-71
2022/08/06 10:50:34;;;;;;;0.50;0.50;;;;;;;-145.16;45.65;77105.12;653660;217;32430;-71
2022/08/06 10:56:33;;;;;;;0.50;0.50;;;;;;;-145.16;41.41;77044.72;645178;217;32660;-71
2022/08/06 11:02:33;;;;;;;0.60;0.60;;;;;;;-145.16;40.50;76945.06;643462;217;32362;-71
2022/08/06 11:08:32;;;;;;;0.50;0.50;;;;;;;-145.16;40.69;76906.81;645170;217;32361;-71
2022/08/06 11:14:45;;;;;;;0.57;0.57;;;;;;;-145.16;38.42;76765.89;644892;217;32381;-71
2022/08/06 11:20:59;;;;;;;0.50;0.50;;;;;;;-145.16;40.11;77051.77;645141;217;32376;-71
2022/08/06 11:26:55;;;;;;;0.40;0.40;;;;;;;-145.16;39.33;76859.50;645052;218;32489;-71
2022/08/06 11:33:23;;;;;;;0.50;0.50;;;;;;;-145.16;37.42;76895.74;653692;217;32307;-71
2022/08/06 11:39:22;;;;;;;0.50;0.50;;;;;;;-145.16;38.88;76898.77;645181;218;32302;-71
2022/08/06 11:45:21;;;;;;;0.52;0.52;;;;;;;-145.16;39.45;77136.33;645144;217;32359;-71
2022/08/06 11:51:21;;;;;;;0.60;0.60;;;;;;;-145.16;40.36;77188.67;653653;217;32377;-71
2022/08/06 11:57:26;;;;;;;0.43;0.43;;;;;;;-145.16;41.49;77136.33;653678;214;32360;-70
2022/08/06 12:03:33;;;;;;;0.88;0.88;;;;;;;-145.16;39.78;77210.81;645167;217;32325;-70
2022/08/06 12:09:36;;;;;;;0.40;0.40;;;;;;;-145.16;40.55;77522.90;645161;216;32368;-70
2022/08/06 12:15:50;;;;;;;0.37;0.37;;;;;;;-145.16;43.18;77746.41;645159;218;32387;-70
2022/08/06 12:21:52;;;;;;;0.40;0.40;;;;;;;-145.16;46.66;77982.02;645194;217;43047;-70
2022/08/06 12:27:51;;;;;;;0.30;0.30;;;;;;;-145.16;49.09;77929.66;645191;217;32363;-70
2022/08/06 12:33:56;;;;;;;0.40;0.40;;;;;;;-145.16;49.75;77929.66;645033;217;43071;-72
2022/08/06 12:46:22;;;;;;;0.30;0.30;;;;;;;-145.16;47.08;77624.58;653690;217;43015;-70
2022/08/06 12:52:24;;;;;;;0.37;0.37;;;;;;;-145.16;44.34;77415.17;645018;216;32391;-70
2022/08/06 12:58:31;;;;;;;0.30;0.30;;;;;;;-145.16;42.86;77453.44;653689;217;32368;-70
2022/08/06 13:04:32;;;;;;;0.30;0.30;;;;;;;-145.16;44.22;77346.72;645062;217;32403;-73
2022/08/06 13:10:31;;;;;;;0.40;0.40;;;;;;;-145.16;41.86;77277.26;645145;217;32363;-70
2022/08/06 13:16:30;;;;;;;0.40;0.40;;;;;;;-145.16;41.68;77523.91;645163;218;32412;-70
2022/08/06 13:22:31;;;;;;;0.55;0.55;;;;;;;-145.16;44.10;77676.94;645031;217;32367;-70
2022/08/06 13:28:31;;;;;;;0.30;0.30;;;;;;;-145.16;47.35;77654.78;653685;217;43079;-70
2022/08/06 13:34:33;;;;;;;0.60;0.60;;;;;;;-145.16;48.14;77792.72;645153;218;32709;-70
2022/08/06 13:40:43;;;;;;;0.50;0.50;;;;;;;-145.16;48.27;77874.27;645173;217;32364;-69
2022/08/06 13:46:48;;;;;;;0.32;0.32;;;;;;;-145.16;51.91;77914.55;653688;218;32302;-70
2022/08/06 13:52:47;;;;;;;0.32;0.32;;;;;;;-145.16;50.67;77855.14;645164;217;32417;-70
2022/08/06 13:58:46;;;;;;;0.20;0.20;;;;;;;-145.16;51.54;77695.06;645159;217;43049;-70
2022/08/06 14:04:46;;;;;;;0.40;0.40;;;;;;;-145.16;52.23;77631.63;645169;217;32635;-72
2022/08/06 14:10:45;;;;;;;0.30;0.30;;;;;;;-145.16;50.81;77492.70;645176;217;32421;-72
2022/08/06 14:16:44;;;;;;;0.37;0.37;;;;;;;-145.16;51.21;77513.84;645168;217;32392;-69
2022/08/06 14:22:45;;;;;;;0.40;0.40;;;;;;;-145.16;47.35;77323.56;653674;217;32306;-72
2022/08/06 14:28:45;;;;;;;0.60;0.60;;;;;;;-145.16;46.21;77333.63;645190;217;32375;-70
2022/08/06 14:34:48;;;;;;;0.40;0.40;;;;;;;-145.16;44.73;77403.09;645022;217;32361;-70
2022/08/06 14:47:04;;;;;;;0.40;0.40;;;;;;;-145.16;46.14;77307.45;653688;218;32632;-70
2022/08/06 14:53:03;;;;;;;0.50;0.50;;;;;;;-145.16;44.49;77504.78;653674;218;32361;-69
2022/08/06 14:59:02;;;;;;;0.40;0.40;;;;;;;-145.16;44.66;77321.55;645188;217;32359;-70
2022/08/06 15:05:03;;;;;;;0.62;0.62;;;;;;;-145.16;45.58;77352.76;653648;217;32357;-72
2022/08/06 15:11:03;;;;;;;0.90;0.50;;;;;;;-145.16;50.60;77659.82;645179;217;43098;-69
2022/08/06 15:17:02;;;;;;;0.40;0.40;;;;;;;-145.16;55.88;77526.92;645165;217;43072;-70
2022/08/06 15:23:04;;;;;;;0.35;0.35;;;;;;;-145.16;52.87;77528.94;645017;217;43337;-69
2022/08/06 15:29:02;;;;;;;0.60;0.60;;;;;;;-145.16;50.09;77608.47;653687;217;32374;-69
2022/08/06 15:35:01;;;;;;;0.40;0.40;;;;;;;-145.16;51.10;77622.57;645175;217;32658;-70
2022/08/06 15:41:01;;;;;;;0.43;0.43;;;;;;;-145.16;50.45;77600.42;645169;217;32411;-69
2022/08/06 15:47:00;;;;;;;1.00;1.00;;;;;;;-145.16;51.72;77518.88;653672;217;43100;-69
2022/08/06 15:53:00;;;;;;;0.37;0.37;;;;;;;-145.16;51.49;77491.69;653696;216;32363;-72
2022/08/06 15:58:58;;;;;;;0.40;0.40;;;;;;;-145.16;53.03;77510.81;645177;218;32382;-70
2022/08/06 16:04:58;;;;;;;0.50;0.50;;;;;;;-145.16;50.75;77588.34;645182;217;32393;-70
2022/08/06 16:10:57;;;;;;;0.28;0.28;;;;;;;-145.16;52.07;77597.40;645171;218;43060;-69
2022/08/06 16:16:57;;;;;;;1.90;0.70;;;;;;;-145.16;49.69;77649.75;644388;217;32369;-69
2022/08/06 16:22:58;;;;;;;0.40;0.40;;;;;;;-145.16;48.54;77554.11;645004;217;32363;-71
2022/08/06 16:29:00;;;;;;;0.50;0.50;;;;;;;-145.16;49.85;77673.91;645020;217;32372;-72
2022/08/06 16:34:59;;;;;;;0.60;0.60;;;;;;;-145.16;53.18;77716.20;653695;217;32349;-69
2022/08/06 16:40:58;;;;;;;0.40;0.40;;;;;;;-145.16;52.22;77700.09;653677;217;32396;-72
2022/08/06 16:46:58;;;;;;;0.25;0.25;;;;;;;-145.16;54.61;77713.18;653678;217;32632;-69
2022/08/06 16:52:57;;;;;;;0.25;0.25;;;;;;;-145.16;52.91;77671.91;653689;218;32406;-69
2022/08/06 16:58:56;;;;;;;0.80;0.40;;;;;;;-145.16;52.38;77712.17;645177;217;32364;-72
2022/08/06 17:04:56;;;;;;;0.40;0.40;;;;;;;-145.16;56.39;77821.92;645179;218;32367;-69
2022/08/06 17:10:55;;;;;;;1.20;1.02;;;;;;;-145.16;58.49;77818.90;645172;217;32394;-69
2022/08/06 17:16:57;;;;;;;0.62;0.62;;;;;;;-145.16;58.52;77846.09;645168;217;32380;-71
2022/08/06 17:22:54;;;;;;;0.50;0.50;;;;;;;-145.16;59.52;77865.22;645169;218;32363;-69
2022/08/06 17:28:53;;;;;;;1.12;0.43;;;;;;;-145.16;60.97;77899.45;645145;218;32740;-72
2022/08/06 17:34:54;;;;;;;0.30;0.30;;;;;;;-145.16;63.36;77927.64;642301;217;32517;-69
2022/08/06 17:40:54;;;;;;;1.52;1.48;;;;;;;-145.16;65.75;77876.29;645170;218;32358;-72
2022/08/06 17:46:53;;;;;;;0.40;0.40;;;;;;;-145.16;67.42;77915.56;645173;218;32422;-69
2022/08/06 17:52:52;;;;;;;0.35;0.35;;;;;;;-145.16;70.93;77942.74;653687;217;32356;-71
2022/08/06 17:58:53;;;;;;;0.85;0.55;;;;;;;-145.16;75.73;77984.02;645081;217;32671;-69
2022/08/06 18:04:53;;;;;;;0.30;0.30;;;;;;;-145.16;81.09;77958.86;645166;217;32366;-69
2022/08/06 18:10:53;;;;;;;0.30;0.30;;;;;;;-145.16;83.92;77986.05;643864;217;32351;-71
2022/08/06 18:16:51;;;;;;;0.20;0.20;;;;;;;-145.16;88.62;78006.18;643642;217;41246;-71
2022/08/06 18:22:50;;;;;;;0.50;0.50;;;;;;;-145.16;93.89;78024.30;645176;217;43062;-72
2022/08/06 18:28:50;;;;;;;6.00;1.10;;;;;;;-145.16;96.61;78035.38;645166;217;32352;-70
2022/08/06 18:34:49;;;;;;;0.40;0.40;;;;;;;-145.16;100.00;78060.55;645162;217;32355;-69
2022/08/06 18:40:49;;;;;;;0.62;0.35;;;;;;;-145.16;100.00;78088.75;645171;217;32368;-69
2022/08/06 18:46:48;;;;;;;0.45;0.45;;;;;;;-145.16;100.00;78116.94;645142;217;32379;-71
2022/08/06 18:52:47;;;;;;;0.30;0.30;;;;;;;-145.16;100.00;78132.05;645179;217;32393;-69
2022/08/06 18:58:48;;;;;;;0.20;0.20;;;;;;;-145.16;100.00;78175.34;644978;218;32382;-69
2022/08/06 19:04:48;;;;;;;0.35;0.35;;;;;;;-145.16;100.00;78205.55;645159;217;32391;-69
2022/08/06 19:10:47;;;;;;;0.60;0.60;;;;;;;-145.16;100.00;78253.89;645171;217;32411;-71
2022/08/06 19:16:46;;;;;;;0.60;0.60;;;;;;;-145.16;100.00;78284.09;645181;217;32334;-71
2022/08/06 19:22:46;;;;;;;0.37;0.37;;;;;;;-145.16;100.00;78303.23;653671;216;32420;-71
2022/08/06 19:28:45;;;;;;;0.60;0.60;;;;;;;-145.16;100.00;78344.52;645173;218;32335;-69
2022/08/06 19:34:45;;;;;;;0.10;0.10;;;;;;;-145.16;100.00;78350.56;642495;217;32490;-71
2022/08/06 19:40:48;;;;;;;0.20;0.20;;;;;;;-145.16;100.00;78377.75;645191;217;32408;-71
2022/08/06 19:46:48;;;;;;;0.40;0.30;;;;;;;-145.16;100.00;78411.98;653653;217;32361;-71
2022/08/06 19:52:47;;;;;;;0.50;0.50;;;;;;;-145.16;100.00;78428.09;645185;217;32420;-71
2022/08/06 19:58:49;;;;;;;0.20;0.20;;;;;;;-145.16;100.00;78450.25;645067;217;32375;-71
2022/08/06 20:04:48;;;;;;;1.50;0.40;;;;;;;-145.16;100.00;78485.50;645194;217;32348;-71
2022/08/06 20:10:47;;;;;;;0.15;0.15;;;;;;;-145.16;100.00;78521.75;645166;217;32418;-70
2022/08/06 20:16:46;;;;;;;0.20;0.20;;;;;;;-145.16;100.00;78551.97;645163;217;33346;-71
2022/08/06 20:22:45;;;;;;;0.30;0.30;;;;;;;-145.16;100.00;78582.17;645182;217;32393;-71
2022/08/06 20:28:45;;;;;;;0.40;0.40;;;;;;;-145.16;100.00;78603.33;645200;217;34314;-71
2022/08/06 20:34:44;;;;;;;0.20;0.20;;;;;;;-145.16;100.00;78622.45;645149;217;32359;-71
2022/08/06 20:40:44;;;;;;;0.27;0.27;;;;;;;-145.16;100.00;78639.58;643397;217;34294;-71
2022/08/06 20:46:43;;;;;;;0.20;0.20;;;;;;;-145.16;100.00;78670.80;639736;217;32537;-71
2022/08/06 20:52:44;;;;;;;0.20;0.20;;;;;;;-145.16;100.00;78688.92;644015;217;34304;-71
2022/08/06 20:58:42;;;;;;;0.20;0.20;;;;;;;-145.16;100.00;78732.23;645163;217;32655;-71
2022/08/06 21:04:41;;;;;;;0.10;0.10;;;;;;;-145.16;100.00;78701.02;644021;217;32365;-70
2022/08/06 21:10:42;;;;;;;0.20;0.20;;;;;;;-145.16;100.00;78703.03;649994;217;33161;-71
2022/08/06 21:16:45;;;;;;;0.10;0.10;;;;;;;-145.16;100.00;78704.03;645119;217;34332;-70
2022/08/06 21:22:46;;;;;;;0.10;0.10;;;;;;;-145.16;100.00;78734.25;645032;218;32388;-71
2022/08/06 21:28:45;;;;;;;0.10;0.10;;;;;;;-145.16;100.00;78748.34;653681;217;32387;-70
2022/08/06 21:34:45;;;;;;;0.10;0.10;;;;;;;-145.16;100.00;78735.25;643366;217;32330;-71
2022/08/06 21:40:45;;;;;;;0.10;0.10;;;;;;;-145.16;100.00;78742.30;653673;217;32353;-71
2022/08/06 21:46:44;;;;;;;0.10;0.10;;;;;;;-145.16;100.00;78725.19;645175;217;32412;-71
2022/08/06 21:52:46;;;;;;;0.10;0.10;;;;;;;-145.16;100.00;78736.27;653658;216;33360;-70
2022/08/06 21:58:45;;;;;;;0.20;0.20;;;;;;;-145.16;100.00;78732.23;653698;218;34329;-71
2022/08/06 22:04:48;;;;;;;0.10;0.10;;;;;;;-145.16;100.00;78737.27;645187;216;32379;-70
2022/08/06 22:10:44;;;;;;;0.10;0.10;;;;;;;-145.16;100.00;78752.38;645170;217;32424;-71
2022/08/06 22:16:45;;;;;;;0.10;0.10;;;;;;;-145.16;100.00;78747.34;645028;217;43322;-70
2022/08/06 22:22:45;;;;;;;0.20;0.20;;;;;;;-145.16;100.00;78756.41;645168;217;32395;-70
2022/08/06 22:28:46;;;;;;;0.10;0.10;;;;;;;-145.16;100.00;78764.46;645078;217;32320;-70
2022/08/06 22:34:45;;;;;;;0.10;0.10;;;;;;;-145.16;100.00;78799.71;645178;217;43053;-71
2022/08/06 22:40:44;;;;;;;0.10;0.10;;;;;;;-145.16;100.00;78816.83;653697;217;32350;-71
2022/08/06 22:46:46;;;;;;;0.10;0.10;;;;;;;-145.16;100.00;78808.78;645031;217;33355;-71
2022/08/06 22:52:47;;;;;;;0.10;0.10;;;;;;;-145.16;100.00;78829.92;645029;217;32387;-71
2022/08/06 22:58:46;;;;;;;0.10;0.10;;;;;;;-145.16;100.00;78835.97;645182;217;32373;-70
2022/08/06 23:04:45;;;;;;;0.10;0.10;;;;;;;-145.16;100.00;78851.08;653791;217;32793;-71
2022/08/06 23:10:48;;;;;;;0.10;0.10;;;;;;;-145.16;100.00;78856.11;645027;216;32413;-70
2022/08/06 23:16:46;;;;;;;0.10;0.10;;;;;;;-145.16;100.00;78855.10;645176;217;33383;-70
2022/08/06 23:22:45;;;;;;;0.10;0.10;;;;;;;-145.16;100.00;78873.23;645183;217;32361;-70
2022/08/06 23:28:45;;;;;;;0.10;0.10;;;;;;;-145.16;100.00;78897.41;645185;217;53799;-70
2022/08/06 23:34:45;;;;;;;0.10;0.10;;;;;;;-145.16;100.00;78912.52;645191;218;32435;-71
2022/08/06 23:40:44;;;;;;;0.10;0.10;;;;;;;-145.16;100.00;78907.48;653782;218;33128;-71
2022/08/06 23:46:44;;;;;;;0.10;0.10;;;;;;;-145.16;100.00;78898.41;653748;217;34590;-71
2022/08/06 23:52:43;;;;;;;0.10;0.10;;;;;;;-145.16;100.00;78881.29;645170;217;32375;-71
2022/08/06 23:58:42;;;;;;;0.20;0.20;;;;;;;-145.16;100.00;78880.28;653691;217;33338;-71
